createdAt,value
2019-02-02T00:00:33.188Z,2.00
2019-02-02T00:03:02.327Z,2.10
2019-02-02T00:05:34.045Z,1.80
2019-02-02T00:08:03.006Z,1.80
2019-02-02T00:10:31.890Z,1.60
2019-02-02T00:13:00.862Z,1.70
2019-02-02T00:15:42.001Z,1.70
2019-02-02T00:18:13.958Z,1.70
2019-02-02T00:20:43.059Z,1.70
2019-02-02T00:23:14.797Z,1.50
2019-02-02T00:25:46.864Z,1.40
2019-02-02T00:28:15.760Z,1.40
2019-02-02T00:30:44.843Z,1.50
2019-02-02T00:33:15.175Z,1.40
2019-02-02T00:35:44.102Z,1.40
2019-02-02T00:38:12.981Z,1.50
2019-02-02T00:40:47.046Z,1.50
2019-02-02T00:43:15.924Z,1.50
2019-02-02T00:45:47.737Z,1.40
2019-02-02T00:48:16.690Z,1.60
2019-02-02T00:50:48.358Z,1.70
2019-02-02T00:53:17.315Z,1.70
2019-02-02T00:55:46.309Z,1.70
2019-02-02T00:58:15.224Z,1.70
2019-02-02T01:00:47.508Z,1.60
2019-02-02T01:03:16.456Z,1.60
2019-02-02T01:05:45.348Z,1.60
2019-02-02T01:08:14.213Z,1.70
2019-02-02T01:10:43.444Z,1.80
2019-02-02T01:13:12.721Z,1.60
2019-02-02T01:15:41.665Z,1.70
2019-02-02T01:18:11.656Z,1.70
2019-02-02T01:20:43.454Z,1.80
2019-02-02T01:23:12.416Z,1.80
2019-02-02T01:25:44.291Z,2.00
2019-02-02T01:28:13.493Z,2.00
2019-02-02T01:30:42.973Z,1.90
2019-02-02T01:33:16.182Z,1.80
2019-02-02T01:35:47.928Z,1.70
2019-02-02T01:38:19.660Z,1.60
2019-02-02T01:40:48.637Z,1.70
2019-02-02T01:43:23.772Z,1.60
2019-02-02T01:45:52.581Z,1.50
2019-02-02T01:48:21.534Z,1.70
2019-02-02T01:50:51.770Z,1.70
2019-02-02T01:53:26.876Z,1.80
2019-02-02T01:55:55.750Z,1.70
2019-02-02T01:58:24.646Z,1.70
2019-02-02T02:00:53.600Z,1.80
2019-02-02T02:03:22.577Z,1.90
2019-02-02T02:05:51.776Z,1.90
2019-02-02T02:08:20.740Z,1.90
2019-02-02T02:10:49.747Z,2.10
2019-02-02T02:13:18.693Z,2.00
2019-02-02T02:15:51.082Z,2.10
2019-02-02T02:18:20.077Z,2.10
2019-02-02T02:20:52.265Z,2.10
2019-02-02T02:23:24.268Z,2.10
2019-02-02T02:25:56.153Z,2.10
2019-02-02T02:28:28.517Z,2.20
2019-02-02T02:30:57.456Z,2.20
2019-02-02T02:33:29.166Z,2.20
2019-02-02T02:36:07.145Z,2.20
2019-02-02T02:38:38.936Z,2.10
2019-02-02T02:41:08.110Z,2.20
2019-02-02T02:43:37.035Z,2.20
2019-02-02T02:46:06.040Z,2.10
2019-02-02T02:48:38.025Z,2.10
2019-02-02T02:51:07.058Z,2.20
2019-02-02T02:53:37.129Z,2.20
2019-02-02T02:56:06.181Z,2.20
2019-02-02T02:58:41.479Z,2.10
2019-02-02T03:01:05.732Z,2.20
2019-02-02T03:03:34.945Z,2.20
2019-02-02T03:06:03.888Z,2.10
2019-02-02T03:08:35.841Z,2.00
2019-02-02T03:11:05.113Z,2.00
2019-02-02T03:13:34.087Z,2.00
2019-02-02T03:16:02.983Z,2.00
2019-02-02T03:18:35.051Z,2.00
2019-02-02T03:21:04.008Z,1.70
2019-02-02T03:23:35.910Z,1.70
2019-02-02T03:26:05.058Z,1.90
2019-02-02T03:28:33.941Z,1.90
2019-02-02T03:31:02.893Z,1.90
2019-02-02T03:33:37.559Z,1.80
2019-02-02T03:36:06.443Z,1.90
2019-02-02T03:38:50.412Z,2.00
2019-02-02T03:41:25.387Z,1.90
2019-02-02T03:44:00.386Z,1.90
2019-02-02T03:46:32.006Z,1.70
2019-02-02T03:49:00.950Z,1.50
2019-02-02T03:51:30.164Z,1.50
2019-02-02T03:54:08.161Z,1.60
2019-02-02T03:56:29.761Z,1.70
2019-02-02T03:59:06.498Z,1.60
2019-02-02T04:01:32.007Z,1.70
2019-02-02T04:04:06.033Z,1.80
2019-02-02T04:06:37.345Z,1.70
2019-02-02T04:09:07.820Z,1.60
2019-02-02T04:11:36.780Z,1.80
2019-02-02T04:14:05.774Z,1.90
2019-02-02T04:16:40.755Z,1.90
2019-02-02T04:19:09.727Z,1.90
2019-02-02T04:21:41.477Z,1.80
2019-02-02T04:24:10.603Z,1.80
2019-02-02T04:26:45.855Z,1.80
2019-02-02T04:29:17.831Z,1.70
2019-02-02T04:31:49.594Z,1.40
2019-02-02T04:34:20.261Z,1.50
2019-02-02T04:36:49.177Z,1.30
2019-02-02T04:39:21.474Z,1.30
2019-02-02T04:41:53.302Z,1.30
2019-02-02T04:44:22.106Z,1.30
2019-02-02T04:46:50.992Z,1.40
2019-02-02T04:49:19.845Z,1.50
2019-02-02T04:51:52.098Z,1.50
2019-02-02T04:54:21.331Z,1.50
2019-02-02T04:56:50.292Z,1.50
2019-02-02T04:59:29.122Z,1.50
2019-02-02T05:01:52.833Z,1.50
2019-02-02T05:04:21.753Z,1.50
2019-02-02T05:06:50.801Z,1.60
2019-02-02T05:09:19.733Z,1.60
2019-02-02T05:11:51.642Z,1.50
2019-02-02T05:14:20.848Z,1.50
2019-02-02T05:16:52.835Z,1.60
2019-02-02T05:19:22.217Z,1.60
2019-02-02T05:21:53.860Z,1.60
2019-02-02T05:24:28.824Z,1.70
2019-02-02T05:26:58.085Z,1.80
2019-02-02T05:29:27.256Z,2.00
2019-02-02T05:32:02.314Z,2.00
2019-02-02T05:34:34.203Z,1.90
2019-02-02T05:37:03.112Z,1.90
2019-02-02T05:39:32.006Z,1.90
2019-02-02T05:42:00.921Z,1.70
2019-02-02T05:44:29.974Z,1.80
2019-02-02T05:47:05.129Z,1.90
2019-02-02T05:49:38.535Z,1.90
2019-02-02T05:52:07.522Z,2.00
2019-02-02T05:54:36.709Z,2.00
2019-02-02T05:57:05.670Z,2.00
2019-02-02T05:59:34.478Z,1.90
2019-02-02T06:02:03.432Z,1.80
2019-02-02T06:04:38.334Z,1.80
2019-02-02T06:07:07.312Z,1.70
2019-02-02T06:09:42.369Z,1.80
2019-02-02T06:12:14.111Z,1.90
2019-02-02T06:14:46.105Z,1.90
2019-02-02T06:17:17.921Z,1.90
2019-02-02T06:19:46.725Z,1.90
2019-02-02T06:22:15.604Z,1.70
2019-02-02T06:24:47.597Z,1.60
2019-02-02T06:27:16.481Z,1.60
2019-02-02T06:29:45.358Z,1.70
2019-02-02T06:32:14.173Z,1.70
2019-02-02T06:34:43.003Z,1.80
2019-02-02T06:37:11.903Z,1.80
2019-02-02T06:39:43.549Z,1.70
2019-02-02T06:42:12.466Z,1.80
2019-02-02T06:44:41.280Z,1.90
2019-02-02T06:47:16.066Z,1.90
2019-02-02T06:49:51.085Z,1.90
2019-02-02T06:52:22.864Z,1.90
2019-02-02T06:54:51.848Z,1.70
2019-02-02T06:57:30.014Z,1.60
2019-02-02T06:59:58.900Z,1.70
2019-02-02T07:02:27.886Z,1.80
2019-02-02T07:04:56.799Z,1.70
2019-02-02T07:07:31.608Z,1.70
2019-02-02T07:10:00.848Z,1.80
2019-02-02T07:12:29.857Z,1.70
2019-02-02T07:14:58.974Z,1.70
2019-02-02T07:17:28.384Z,1.80
2019-02-02T07:20:00.556Z,1.70
2019-02-02T07:22:29.437Z,1.60
2019-02-02T07:24:58.348Z,1.70
2019-02-02T07:27:30.057Z,1.60
2019-02-02T07:29:59.012Z,1.50
2019-02-02T07:32:31.752Z,1.50
2019-02-02T07:35:01.717Z,1.50
2019-02-02T07:37:36.512Z,1.70
2019-02-02T07:40:10.936Z,1.90
2019-02-02T07:42:37.477Z,2.00
2019-02-02T07:45:11.564Z,2.00
2019-02-02T07:47:40.789Z,2.00
2019-02-02T07:50:11.334Z,2.10
2019-02-02T07:52:43.195Z,2.20
2019-02-02T07:55:13.270Z,2.20
2019-02-02T07:57:42.274Z,2.20
2019-02-02T08:00:17.823Z,2.30
2019-02-02T08:02:46.799Z,2.20
2019-02-02T08:05:15.665Z,2.20
2019-02-02T08:07:44.509Z,2.10
2019-02-02T08:10:13.910Z,2.00
2019-02-02T08:12:45.671Z,2.00
2019-02-02T08:15:19.582Z,2.00
2019-02-02T08:17:52.493Z,1.90
2019-02-02T08:20:24.110Z,2.00
2019-02-02T08:22:56.355Z,2.00
2019-02-02T08:25:24.098Z,1.90
2019-02-02T08:27:55.218Z,2.00
2019-02-02T08:30:28.929Z,1.90
2019-02-02T08:32:58.021Z,2.10
2019-02-02T08:35:30.055Z,2.10
2019-02-02T08:37:58.934Z,1.90
2019-02-02T08:40:28.219Z,1.80
2019-02-02T08:42:59.970Z,1.80
2019-02-02T08:45:32.073Z,1.80
2019-02-02T08:48:00.876Z,1.80
2019-02-02T08:50:35.012Z,1.90
2019-02-02T08:53:07.542Z,1.90
2019-02-02T08:55:37.522Z,2.00
2019-02-02T08:58:09.799Z,2.20
2019-02-02T09:00:41.805Z,2.30
2019-02-02T09:03:12.270Z,2.40
2019-02-02T09:05:44.119Z,2.40
2019-02-02T09:08:13.066Z,2.30
2019-02-02T09:10:44.737Z,2.20
2019-02-02T09:13:13.610Z,2.30
2019-02-02T09:15:42.990Z,2.50
2019-02-02T09:18:17.253Z,2.70
2019-02-02T09:20:46.121Z,2.80
2019-02-02T09:23:15.182Z,2.90
2019-02-02T09:25:44.127Z,3.00
2019-02-02T09:28:16.110Z,3.10
2019-02-02T09:30:48.132Z,3.20
2019-02-02T09:33:21.948Z,3.30
2019-02-02T09:35:54.932Z,3.40
2019-02-02T09:38:26.817Z,3.20
2019-02-02T09:40:55.807Z,3.40
2019-02-02T09:43:28.984Z,3.00
2019-02-02T09:46:01.270Z,3.10
2019-02-02T09:48:31.375Z,3.10
2019-02-02T09:51:03.372Z,3.30
2019-02-02T09:53:32.269Z,3.40
2019-02-02T09:56:04.486Z,3.40
2019-02-02T09:58:33.448Z,3.50
2019-02-02T10:01:08.104Z,3.50
2019-02-02T10:03:37.188Z,3.50
2019-02-02T10:06:06.322Z,3.50
2019-02-02T10:08:38.049Z,3.40
2019-02-02T10:11:16.071Z,3.40
2019-02-02T10:13:52.152Z,3.30
2019-02-02T10:16:24.359Z,3.30
2019-02-02T10:18:53.258Z,3.30
2019-02-02T10:21:22.089Z,3.20
2019-02-02T10:23:54.881Z,3.20
2019-02-02T10:26:24.014Z,3.20
2019-02-02T10:28:52.974Z,3.30
2019-02-02T10:31:38.908Z,3.40
2019-02-02T10:33:58.525Z,3.40
2019-02-02T10:36:27.429Z,3.60
2019-02-02T10:38:56.265Z,3.60
2019-02-02T10:41:25.721Z,3.60
2019-02-02T10:43:54.648Z,3.50
2019-02-02T10:46:23.688Z,3.40
2019-02-02T10:48:58.569Z,3.50
2019-02-02T10:51:28.114Z,3.60
2019-02-02T10:53:57.090Z,3.30
2019-02-02T10:56:29.140Z,3.30
2019-02-02T10:58:58.062Z,3.40
2019-02-02T11:01:34.058Z,3.30
2019-02-02T11:04:00.363Z,3.20
2019-02-02T11:06:41.347Z,3.20
2019-02-02T11:09:10.605Z,3.20
2019-02-02T11:11:42.709Z,3.40
2019-02-02T11:14:14.582Z,3.40
2019-02-02T11:16:43.682Z,3.60
2019-02-02T11:19:15.705Z,3.70
2019-02-02T11:21:44.849Z,3.70
2019-02-02T11:24:13.763Z,3.90
2019-02-02T11:26:42.809Z,3.90
2019-02-02T11:29:11.861Z,4.10
2019-02-02T11:31:42.580Z,4.20
2019-02-02T11:34:14.644Z,4.30
2019-02-02T11:36:49.787Z,4.20
2019-02-02T11:39:18.811Z,4.00
2019-02-02T11:42:00.366Z,4.10
2019-02-02T11:44:29.332Z,4.10
2019-02-02T11:46:58.647Z,3.90
2019-02-02T11:49:30.805Z,4.20
2019-02-02T11:52:05.429Z,4.40
2019-02-02T11:54:37.765Z,4.20
2019-02-02T11:57:06.724Z,4.30
2019-02-02T11:59:35.893Z,4.20
2019-02-02T12:02:14.300Z,3.90
2019-02-02T12:04:42.353Z,4.10
2019-02-02T12:07:11.382Z,4.20
2019-02-02T12:09:40.332Z,4.20
2019-02-02T12:12:09.328Z,4.20
2019-02-02T12:14:44.403Z,3.80
2019-02-02T12:17:16.425Z,4.10
2019-02-02T12:19:51.891Z,4.00
2019-02-02T12:22:22.949Z,4.00
2019-02-02T12:24:52.630Z,3.80
2019-02-02T12:27:21.530Z,4.00
2019-02-02T12:29:50.702Z,4.10
2019-02-02T12:32:26.640Z,4.30
2019-02-02T12:34:50.250Z,4.60
2019-02-02T12:37:19.285Z,4.40
2019-02-02T12:39:49.468Z,4.50
2019-02-02T12:42:22.858Z,4.40
2019-02-02T12:44:56.535Z,4.50
2019-02-02T12:47:27.444Z,4.40
2019-02-02T12:49:56.463Z,4.40
2019-02-02T12:52:31.131Z,4.30
2019-02-02T12:55:06.049Z,4.30
2019-02-02T12:57:37.959Z,4.40
2019-02-02T13:00:10.894Z,4.40
2019-02-02T13:02:39.931Z,4.50
2019-02-02T13:05:13.166Z,4.50
2019-02-02T13:07:48.389Z,4.30
2019-02-02T13:10:20.959Z,4.40
2019-02-02T13:12:57.541Z,4.80
2019-02-02T13:15:29.542Z,4.70
2019-02-02T13:17:58.533Z,4.30
2019-02-02T13:20:29.883Z,4.60
2019-02-02T13:22:59.312Z,4.60
2019-02-02T13:25:28.468Z,4.40
2019-02-02T13:27:57.541Z,4.20
2019-02-02T13:30:33.279Z,4.00
2019-02-02T13:33:02.545Z,4.20
2019-02-02T13:35:33.150Z,4.30
2019-02-02T13:38:05.335Z,4.50
2019-02-02T13:40:34.189Z,4.50
2019-02-02T13:43:03.195Z,4.20
2019-02-02T13:45:32.175Z,4.40
2019-02-02T13:48:01.094Z,4.60
2019-02-02T13:50:33.229Z,4.60
2019-02-02T13:53:02.557Z,4.60
2019-02-02T13:55:31.526Z,4.90
2019-02-02T13:58:00.417Z,4.90
2019-02-02T14:00:30.718Z,5.00
2019-02-02T14:03:03.855Z,4.80
2019-02-02T14:05:36.005Z,4.60
2019-02-02T14:08:07.739Z,4.80
2019-02-02T14:10:37.050Z,4.80
2019-02-02T14:13:06.317Z,4.60
2019-02-02T14:15:41.326Z,4.50
2019-02-02T14:18:10.323Z,4.60
2019-02-02T14:20:39.183Z,4.60
2019-02-02T14:23:14.214Z,4.40
2019-02-02T14:25:46.084Z,4.30
2019-02-02T14:28:15.080Z,4.40
2019-02-02T14:30:44.070Z,4.30
2019-02-02T14:33:15.977Z,4.50
2019-02-02T14:35:47.756Z,4.50
2019-02-02T14:38:20.450Z,4.40
2019-02-02T14:40:52.283Z,4.40
2019-02-02T14:43:21.305Z,4.50
2019-02-02T14:45:50.314Z,4.40
2019-02-02T14:48:19.248Z,4.30
2019-02-02T14:50:51.206Z,4.20
2019-02-02T14:53:20.051Z,4.30
2019-02-02T14:55:49.023Z,4.30
2019-02-02T14:58:18.134Z,4.10
2019-02-02T15:00:47.193Z,3.90
2019-02-02T15:03:25.842Z,4.00
2019-02-02T15:05:49.882Z,4.10
2019-02-02T15:08:19.225Z,3.90
2019-02-02T15:10:54.348Z,3.80
2019-02-02T15:13:23.529Z,4.00
2019-02-02T15:15:52.433Z,4.20
2019-02-02T15:18:24.193Z,4.10
2019-02-02T15:20:55.945Z,3.80
2019-02-02T15:23:25.289Z,3.80
2019-02-02T15:25:54.670Z,3.80
2019-02-02T15:28:24.935Z,3.60
2019-02-02T15:30:59.842Z,3.70
2019-02-02T15:33:37.505Z,3.70
2019-02-02T15:35:59.868Z,3.60
2019-02-02T15:38:28.791Z,3.70
2019-02-02T15:41:00.526Z,3.70
2019-02-02T15:43:35.300Z,3.60
2019-02-02T15:46:04.299Z,3.50
2019-02-02T15:48:33.649Z,3.50
2019-02-02T15:51:02.659Z,3.50
2019-02-02T15:53:35.323Z,3.60
2019-02-02T15:56:07.152Z,3.60
2019-02-02T15:58:37.353Z,3.50
2019-02-02T16:01:06.361Z,3.30
2019-02-02T16:03:49.184Z,3.20
2019-02-02T16:06:08.753Z,3.10
2019-02-02T16:08:37.611Z,3.00
2019-02-02T16:11:09.857Z,2.80
2019-02-02T16:13:39.629Z,2.70
2019-02-02T16:16:11.721Z,2.80
2019-02-02T16:18:40.677Z,2.90
2019-02-02T16:21:11.318Z,2.90
2019-02-02T16:23:40.280Z,2.90
2019-02-02T16:26:09.444Z,2.90
2019-02-02T16:28:41.489Z,2.90
2019-02-02T16:31:10.562Z,2.90
2019-02-02T16:33:39.631Z,2.80
2019-02-02T16:36:11.293Z,2.80
2019-02-02T16:38:40.284Z,2.80
2019-02-02T16:41:09.631Z,2.90
2019-02-02T16:43:38.602Z,3.00
2019-02-02T16:46:10.709Z,3.20
2019-02-02T16:48:40.458Z,3.30
2019-02-02T16:51:09.569Z,3.30
2019-02-02T16:53:38.404Z,3.40
2019-02-02T16:56:10.462Z,3.40
2019-02-02T16:58:39.493Z,3.40
2019-02-02T17:01:08.425Z,3.30
2019-02-02T17:03:37.479Z,3.30
2019-02-02T17:06:06.440Z,3.20
2019-02-02T17:08:38.241Z,3.10
2019-02-02T17:11:07.516Z,3.00
2019-02-02T17:13:39.468Z,2.90
2019-02-02T17:16:16.717Z,3.00
2019-02-02T17:18:45.945Z,3.10
2019-02-02T17:21:18.035Z,3.20
2019-02-02T17:23:46.858Z,3.20
2019-02-02T17:26:15.802Z,3.30
2019-02-02T17:28:44.693Z,3.30
2019-02-02T17:31:13.700Z,3.20
2019-02-02T17:33:42.629Z,3.20
2019-02-02T17:36:11.662Z,3.10
2019-02-02T17:38:40.627Z,3.20
2019-02-02T17:41:09.621Z,3.30
2019-02-02T17:43:38.675Z,3.20
2019-02-02T17:46:07.605Z,3.20
2019-02-02T17:48:39.840Z,3.40
2019-02-02T17:51:08.841Z,3.40
2019-02-02T17:53:37.821Z,3.40
2019-02-02T17:56:06.890Z,3.20
2019-02-02T17:58:41.512Z,3.20
2019-02-02T18:01:16.518Z,3.00
2019-02-02T18:03:45.740Z,3.00
2019-02-02T18:06:15.821Z,3.00
2019-02-02T18:08:45.268Z,3.00
2019-02-02T18:11:20.907Z,2.90
2019-02-02T18:13:50.063Z,2.90
2019-02-02T18:16:25.182Z,2.90
2019-02-02T18:18:54.116Z,2.90
2019-02-02T18:21:26.190Z,3.10
2019-02-02T18:23:57.968Z,3.00
2019-02-02T18:26:29.754Z,3.10
2019-02-02T18:29:00.207Z,3.00
2019-02-02T18:31:35.518Z,3.20
2019-02-02T18:34:04.852Z,3.10
2019-02-02T18:36:35.502Z,3.10
2019-02-02T18:39:07.479Z,3.10
2019-02-02T18:41:39.664Z,3.10
2019-02-02T18:44:08.085Z,3.00
2019-02-02T18:46:39.913Z,3.10
2019-02-02T18:49:12.214Z,3.20
2019-02-02T18:51:41.807Z,3.20
2019-02-02T18:54:10.748Z,3.10
2019-02-02T18:56:39.861Z,3.10
2019-02-02T18:59:09.085Z,2.90
2019-02-02T19:01:39.739Z,2.90
2019-02-02T19:04:09.024Z,3.00
2019-02-02T19:06:37.994Z,3.20
2019-02-02T19:09:08.418Z,3.10
2019-02-02T19:11:46.995Z,3.20
2019-02-02T19:14:17.266Z,3.20
2019-02-02T19:16:46.287Z,3.30
2019-02-02T19:19:15.245Z,3.20
2019-02-02T19:21:44.308Z,3.20
2019-02-02T19:24:18.650Z,3.30
2019-02-02T19:26:47.802Z,3.40
2019-02-02T19:29:16.957Z,3.50
2019-02-02T19:31:45.880Z,3.50
2019-02-02T19:34:18.394Z,3.50
2019-02-02T19:36:47.493Z,3.40
2019-02-02T19:39:16.666Z,3.30
2019-02-02T19:41:45.478Z,3.20
2019-02-02T19:44:16.918Z,3.30
2019-02-02T19:46:51.501Z,3.20
2019-02-02T19:49:20.418Z,3.20
2019-02-02T19:51:51.067Z,3.30
2019-02-02T19:54:23.138Z,3.20
2019-02-02T19:56:55.087Z,3.20
2019-02-02T19:59:28.954Z,3.10
2019-02-02T20:02:07.140Z,3.10
2019-02-02T20:04:41.069Z,3.10
2019-02-02T20:07:12.613Z,3.10
2019-02-02T20:09:41.539Z,3.10
2019-02-02T20:12:13.525Z,3.10
2019-02-02T20:14:45.942Z,3.00
2019-02-02T20:17:20.729Z,3.00
2019-02-02T20:19:53.502Z,3.00
2019-02-02T20:22:22.580Z,3.00
2019-02-02T20:24:51.524Z,2.90
2019-02-02T20:27:20.517Z,3.00
2019-02-02T20:29:50.051Z,3.00
2019-02-02T20:32:20.881Z,3.00
2019-02-02T20:34:50.304Z,3.00
2019-02-02T20:37:19.381Z,3.00
2019-02-02T20:39:54.575Z,2.90
2019-02-02T20:42:29.866Z,2.90
2019-02-02T20:44:59.418Z,2.90
2019-02-02T20:47:30.737Z,2.90
2019-02-02T20:50:00.208Z,2.90
2019-02-02T20:52:32.105Z,2.90
2019-02-02T20:55:04.522Z,2.90
2019-02-02T20:57:33.452Z,2.90
2019-02-02T21:00:02.455Z,2.90
2019-02-02T21:02:33.750Z,3.00
2019-02-02T21:05:02.757Z,3.00
2019-02-02T21:07:41.033Z,3.00
2019-02-02T21:10:20.680Z,3.10
2019-02-02T21:12:50.413Z,3.00
2019-02-02T21:15:19.888Z,3.00
2019-02-02T21:17:51.889Z,3.10
2019-02-02T21:20:25.521Z,3.00
2019-02-02T21:22:54.686Z,3.10
2019-02-02T21:25:23.852Z,3.10
2019-02-02T21:27:52.818Z,3.10
2019-02-02T21:30:26.805Z,3.10
2019-02-02T21:32:55.849Z,3.10
2019-02-02T21:35:27.961Z,3.10
2019-02-02T21:37:57.041Z,3.10
2019-02-02T21:40:34.138Z,3.10
2019-02-02T21:43:03.047Z,3.00
2019-02-02T21:45:32.013Z,2.90
2019-02-02T21:48:01.322Z,2.80
2019-02-02T21:50:30.277Z,2.90
2019-02-02T21:53:02.293Z,2.90
2019-02-02T21:55:34.369Z,2.80
2019-02-02T21:58:09.294Z,2.80
2019-02-02T22:00:40.161Z,2.80
2019-02-02T22:03:09.154Z,2.80
2019-02-02T22:05:38.148Z,2.80
2019-02-02T22:08:13.353Z,2.70
2019-02-02T22:10:45.635Z,2.80
2019-02-02T22:13:15.282Z,2.70
2019-02-02T22:15:50.143Z,2.70
2019-02-02T22:18:25.068Z,2.60
2019-02-02T22:20:54.777Z,2.60
2019-02-02T22:23:23.684Z,2.60
2019-02-02T22:25:53.724Z,2.60
2019-02-02T22:28:22.694Z,2.60
2019-02-02T22:30:54.185Z,2.60
2019-02-02T22:33:22.755Z,2.60
2019-02-02T22:35:51.630Z,2.60
2019-02-02T22:38:24.577Z,2.60
2019-02-02T22:40:59.351Z,2.50
2019-02-02T22:43:28.582Z,2.40
2019-02-02T22:46:00.991Z,2.40
2019-02-02T22:48:32.578Z,2.40
2019-02-02T22:51:05.158Z,2.40
2019-02-02T22:53:36.934Z,2.30
2019-02-02T22:56:06.122Z,2.40
2019-02-02T22:58:35.140Z,2.40
2019-02-02T23:01:24.741Z,2.20
2019-02-02T23:04:21.665Z,2.30
2019-02-02T23:07:23.795Z,2.20
2019-02-02T23:10:29.427Z,2.20
2019-02-02T23:13:29.736Z,2.20
2019-02-02T23:16:30.630Z,2.10
2019-02-02T23:19:02.138Z,2.20
2019-02-02T23:21:34.400Z,2.10
2019-02-02T23:24:04.628Z,2.10
2019-02-02T23:26:34.349Z,2.00
2019-02-02T23:29:05.697Z,2.00
2019-02-02T23:31:43.421Z,2.00
2019-02-02T23:34:18.455Z,2.00
2019-02-02T23:36:55.902Z,2.00
2019-02-02T23:39:27.505Z,2.10
2019-02-02T23:41:56.488Z,2.10
2019-02-02T23:44:28.357Z,2.10
2019-02-02T23:46:57.441Z,2.10
2019-02-02T23:49:26.337Z,2.10
2019-02-02T23:51:55.594Z,2.10
2019-02-02T23:54:27.269Z,2.10
2019-02-02T23:56:56.233Z,2.00
2019-02-02T23:59:28.003Z,2.00
